Time;durP1;ratioP1;P1;durP2;ratioP2;P2;SDS_P1;SDS_P2;PMS_P1;PMS_P2;Temp;Humidity;BMP_temperature;BMP_pressure;BME280_temperature;BME280_humidity;BME280_pressure;Samples;Min_cycle;Max_cycle;Signal;HPM_P1;HPM_P2
2021/05/30 00:02:04;;;;;;;4.53;3.60;;;11.80;82.10;;;11.58;78.44;98902.78;5035506;28;21200;-69
2021/05/30 00:04:33;;;;;;;4.10;3.70;;;11.70;82.00;;;11.56;80.39;98909.03;5037218;28;21155;-69
2021/05/30 00:07:04;;;;;;;4.83;3.27;;;11.70;82.80;;;11.56;79.63;98901.19;5033854;28;20668;-69
2021/05/30 00:09:32;;;;;;;4.40;3.63;;;11.70;82.80;;;11.53;79.68;98909.22;5037813;28;20663;-69
2021/05/30 00:12:00;;;;;;;4.23;3.83;;;11.70;83.40;;;11.48;79.98;98908.66;5038201;28;20626;-69
2021/05/30 00:14:28;;;;;;;4.07;3.67;;;11.60;83.10;;;11.42;79.09;98895.91;5033121;28;20660;-69
2021/05/30 00:16:56;;;;;;;4.20;3.40;;;11.50;83.00;;;11.42;80.64;98893.28;5032113;28;20665;-69
2021/05/30 00:19:26;;;;;;;8.40;3.87;;;11.50;83.30;;;11.39;79.80;98896.91;5035685;28;21005;-69
2021/05/30 00:21:56;;;;;;;6.30;4.03;;;11.50;82.80;;;11.34;80.00;98898.97;5039703;28;20645;-69
2021/05/30 00:24:24;;;;;;;5.60;4.20;;;11.50;83.30;;;11.29;80.25;98901.00;5042875;28;20690;-69
2021/05/30 00:26:58;;;;;;;4.57;3.63;;;11.40;83.40;;;11.27;79.81;98888.97;5034153;28;20811;-69
2021/05/30 00:29:26;;;;;;;3.90;3.50;;;11.40;83.40;;;11.26;80.08;98897.75;5038481;28;20634;-69
2021/05/30 00:31:55;;;;;;;4.07;3.67;;;11.40;83.90;;;11.28;79.97;98898.50;5050654;28;20639;-69
2021/05/30 00:34:24;;;;;;;4.27;3.63;;;11.40;84.10;;;11.25;80.98;98896.06;5040908;28;20695;-69
2021/05/30 00:36:53;;;;;;;4.70;4.00;;;11.40;84.20;;;11.19;80.65;98892.97;5037710;28;21255;-69
2021/05/30 00:39:21;;;;;;;4.67;3.70;;;11.30;83.80;;;11.16;80.21;98893.97;5033139;28;20658;-69
2021/05/30 00:41:49;;;;;;;4.40;4.00;;;11.30;84.40;;;11.10;81.03;98893.50;5038291;28;20633;-69
2021/05/30 00:44:23;;;;;;;5.30;3.80;;;11.30;84.20;;;11.03;80.33;98897.38;5033017;28;20644;-69
2021/05/30 00:46:53;;;;;;;3.83;3.53;;;11.20;84.50;;;10.99;80.68;98903.69;5032089;28;20640;-69
2021/05/30 00:49:22;;;;;;;5.30;4.17;;;11.20;84.90;;;10.94;81.29;98901.34;5036469;28;20636;-69
2021/05/30 00:51:51;;;;;;;4.07;3.60;;;11.10;84.70;;;10.93;80.87;98904.91;5036389;28;20641;-69
2021/05/30 00:54:20;;;;;;;4.50;3.97;;;11.10;85.10;;;10.94;80.80;98905.72;5038920;28;20673;-69
2021/05/30 00:56:48;;;;;;;5.87;3.97;;;11.10;85.40;;;10.92;81.19;98918.03;5034441;28;20703;-69
2021/05/30 00:59:16;;;;;;;3.83;3.33;;;11.00;85.20;;;10.89;80.84;98907.78;5034091;28;20664;-69
2021/05/30 01:01:45;;;;;;;4.27;3.80;;;11.00;85.30;;;10.84;81.25;98902.81;5035247;28;20649;-69
2021/05/30 01:04:13;;;;;;;4.40;4.00;;;11.00;85.20;;;10.85;80.60;98903.63;5036271;28;20736;-69
2021/05/30 01:06:42;;;;;;;5.33;4.07;;;11.00;85.20;;;10.86;81.44;98906.16;5032466;28;20653;-69
2021/05/30 01:09:11;;;;;;;5.93;3.90;;;11.00;85.50;;;10.84;81.25;98905.41;5039306;28;20715;-69
2021/05/30 01:11:39;;;;;;;4.90;3.93;;;11.00;85.60;;;10.79;80.71;98905.75;5036937;28;21011;-69
2021/05/30 01:14:10;;;;;;;4.13;3.73;;;10.90;85.50;;;10.79;81.04;98903.16;5036232;28;20719;-69
2021/05/30 01:16:45;;;;;;;5.87;4.17;;;10.90;86.00;;;10.75;81.51;98907.72;5040566;28;20635;-69
2021/05/30 01:19:16;;;;;;;4.40;4.00;;;10.90;86.10;;;10.75;81.83;98901.63;5037431;28;20731;-69
2021/05/30 01:21:46;;;;;;;5.03;4.03;;;10.90;86.40;;;10.68;80.74;98910.75;5042389;28;20723;-69
2021/05/30 01:24:16;;;;;;;3.77;3.37;;;10.80;85.70;;;10.65;81.33;98905.69;5043127;28;20651;-69
2021/05/30 01:26:45;;;;;;;5.00;4.10;;;10.80;85.90;;;10.65;81.49;98908.31;5035415;28;21311;-69
2021/05/30 01:29:13;;;;;;;3.83;3.50;;;10.80;86.40;;;10.64;81.90;98902.22;5033215;28;20977;-69
2021/05/30 01:31:41;;;;;;;5.10;3.43;;;10.80;86.60;;;10.66;81.35;98909.97;5033731;28;20678;-69
2021/05/30 01:34:09;;;;;;;4.93;4.37;;;10.80;86.30;;;10.68;81.46;98910.75;5037180;28;20652;-69
2021/05/30 01:36:37;;;;;;;4.70;4.07;;;10.80;86.50;;;10.66;81.44;98904.75;5045401;28;20628;-69
2021/05/30 01:39:06;;;;;;;5.67;3.80;;;10.80;86.60;;;10.67;81.40;98916.88;5035203;28;20687;-69
2021/05/30 01:41:35;;;;;;;5.27;4.50;;;10.80;86.10;;;10.66;80.92;98907.38;5036546;28;21200;-69
2021/05/30 01:44:04;;;;;;;5.00;4.27;;;10.80;86.30;;;10.65;81.85;98916.13;5042122;28;20686;-69
2021/05/30 01:46:32;;;;;;;5.87;4.67;;;10.80;87.10;;;10.65;81.73;98916.13;5041142;28;20726;-69
2021/05/30 01:49:01;;;;;;;5.37;3.73;;;10.80;87.00;;;10.65;81.28;98911.75;5034917;28;20731;-69
2021/05/30 01:51:30;;;;;;;5.97;4.27;;;10.80;86.80;;;10.65;81.88;98914.34;5038925;28;20631;-69
2021/05/30 01:54:05;;;;;;;4.50;4.10;;;10.80;87.00;;;10.62;81.84;98911.91;5041696;28;20643;-69
2021/05/30 01:59:20;;;;;;;4.30;3.90;;;10.70;86.90;;;10.61;81.93;98915.44;5035420;28;20653;-69
2021/05/30 02:01:50;;;;;;;5.00;4.50;;;10.80;87.10;;;10.61;81.79;98920.66;5040578;28;20636;-69
2021/05/30 02:04:21;;;;;;;4.90;4.27;;;10.80;87.00;;;10.63;82.03;98913.63;5044942;28;20973;-69
2021/05/30 02:06:50;;;;;;;4.53;4.13;;;10.80;87.00;;;10.62;81.77;98922.34;5039057;28;20684;-69
2021/05/30 02:09:18;;;;;;;6.37;4.40;;;10.80;86.90;;;10.59;81.77;98912.09;5038663;28;20695;-69
2021/05/30 02:11:48;;;;;;;4.40;4.00;;;10.80;86.90;;;10.58;81.51;98918.22;5036264;28;20699;-69
2021/05/30 02:14:17;;;;;;;4.80;4.00;;;10.70;86.60;;;10.58;81.87;98918.22;5037505;28;20728;-69
2021/05/30 02:16:45;;;;;;;5.07;4.40;;;10.80;87.10;;;10.60;81.59;98923.34;5031746;28;20630;-69
2021/05/30 02:19:14;;;;;;;4.60;4.20;;;10.80;87.10;;;10.62;81.75;98926.75;5038467;28;20665;-69
2021/05/30 02:21:44;;;;;;;4.60;3.40;;;10.80;86.90;;;10.60;81.71;98923.34;5037438;28;20665;-69
2021/05/30 02:24:14;;;;;;;6.50;4.60;;;10.80;86.90;;;10.58;81.57;98930.44;5035515;28;21185;-69
2021/05/30 02:26:43;;;;;;;5.60;4.50;;;10.70;86.70;;;10.55;81.78;98925.38;5038680;28;20633;-69
2021/05/30 02:29:30;;;;;;;5.83;4.00;;;10.70;86.90;;;10.55;82.00;98930.59;5039627;28;20798;-69
2021/05/30 02:31:58;;;;;;;4.90;4.40;;;10.70;87.30;;;10.55;82.27;98925.38;5036260;28;21157;-69
2021/05/30 02:34:26;;;;;;;4.33;3.90;;;10.70;87.30;;;10.54;81.79;98929.75;5035446;28;20646;-69
2021/05/30 02:36:54;;;;;;;5.03;3.90;;;10.70;87.20;;;10.56;81.98;98932.28;5035113;28;21148;-69
2021/05/30 02:39:22;;;;;;;6.73;4.60;;;10.70;87.20;;;10.54;82.00;98937.59;5036334;28;20665;-69
2021/05/30 02:41:52;;;;;;;4.97;4.27;;;10.70;87.80;;;10.53;81.62;98929.84;5045161;28;21180;-69
2021/05/30 02:44:21;;;;;;;6.30;5.20;;;10.70;86.80;;;10.48;81.86;98929.25;5040150;28;20637;-69
2021/05/30 02:46:49;;;;;;;5.23;4.43;;;10.70;87.20;;;10.43;81.94;98936.47;5040860;28;20636;-69
2021/05/30 02:49:18;;;;;;;5.23;4.20;;;10.60;87.10;;;10.40;82.07;98931.44;5044203;28;20704;-69
2021/05/30 02:51:46;;;;;;;5.67;4.10;;;10.60;87.30;;;10.38;82.26;98928.06;5041978;28;20633;-69
2021/05/30 02:54:14;;;;;;;5.37;4.60;;;10.60;87.60;;;10.36;82.17;98937.75;5037186;28;20678;-69
2021/05/30 02:56:42;;;;;;;5.33;4.20;;;10.50;87.40;;;10.34;82.50;98940.44;5037931;28;20690;-69
2021/05/30 02:59:10;;;;;;;4.87;4.00;;;10.60;87.70;;;10.32;82.19;98938.00;5034826;28;20675;-69
2021/05/30 03:01:39;;;;;;;4.83;4.40;;;10.50;87.60;;;10.30;82.29;98942.44;5037350;28;20658;-69
2021/05/30 03:04:08;;;;;;;4.70;4.00;;;10.50;87.70;;;10.29;82.36;98935.56;5034387;28;20639;-69
2021/05/30 03:06:36;;;;;;;4.87;4.47;;;10.50;87.70;;;10.29;82.41;98935.56;5041428;28;20714;-69
2021/05/30 03:09:05;;;;;;;5.67;4.60;;;10.50;87.90;;;10.27;82.70;98946.06;5034721;28;20641;-69
2021/05/30 03:11:33;;;;;;;5.03;4.53;;;10.50;87.90;;;10.26;82.25;98938.31;5037851;28;20637;-69
2021/05/30 03:14:01;;;;;;;5.17;4.67;;;10.50;88.10;;;10.23;82.42;98946.31;5037142;28;20625;-69
2021/05/30 03:16:30;;;;;;;4.57;4.13;;;10.40;88.20;;;10.15;82.51;98945.84;5038394;28;20687;-69
2021/05/30 03:18:59;;;;;;;5.27;4.77;;;10.40;87.90;;;10.09;81.83;98946.22;5032581;28;20720;-69
2021/05/30 03:21:27;;;;;;;6.67;5.17;;;10.30;88.30;;;10.01;82.62;98949.22;5038191;28;20743;-69
2021/05/30 03:23:56;;;;;;;6.57;5.00;;;10.20;88.00;;;9.98;82.80;98944.16;5035298;28;20733;-69
2021/05/30 03:26:24;;;;;;;4.70;4.00;;;10.20;88.30;;;9.98;82.75;98945.91;5035902;28;20628;-69
2021/05/30 03:28:52;;;;;;;5.27;4.77;;;10.20;88.70;;;9.97;83.05;98952.88;5035674;28;20644;-69
2021/05/30 03:31:21;;;;;;;6.03;4.87;;;10.20;89.70;;;9.92;82.74;98952.25;5040968;28;20644;-69
2021/05/30 03:33:49;;;;;;;5.40;4.63;;;10.10;88.90;;;9.91;82.86;98955.78;5035011;28;21211;-69
2021/05/30 03:36:21;;;;;;;5.30;4.70;;;10.10;88.90;;;9.91;83.89;98954.94;5034754;28;20994;-69
2021/05/30 03:38:59;;;;;;;5.57;4.67;;;10.10;89.40;;;9.92;83.32;98951.41;5032618;28;20637;-69
2021/05/30 03:41:31;;;;;;;6.13;5.03;;;10.10;89.90;;;9.93;83.85;98960.91;5039370;28;20657;-69
2021/05/30 03:44:01;;;;;;;7.10;5.20;;;10.10;90.00;;;9.91;83.94;98963.59;5036368;28;20702;-69
2021/05/30 03:46:29;;;;;;;5.13;4.63;;;10.00;89.80;;;9.91;83.34;98965.38;5038557;28;20652;-69
2021/05/30 03:48:58;;;;;;;6.30;5.20;;;10.10;90.00;;;9.87;83.65;98956.84;5036870;28;20647;-70
2021/05/30 03:51:27;;;;;;;7.03;5.70;;;10.00;89.80;;;9.85;84.54;98961.31;5040221;28;21038;-69
2021/05/30 03:53:55;;;;;;;6.70;4.57;;;10.00;90.50;;;9.86;83.49;98964.75;5036368;28;20643;-69
2021/05/30 03:56:24;;;;;;;5.63;5.00;;;10.00;90.60;;;9.87;83.95;98962.06;5039875;28;20668;-70
2021/05/30 03:58:52;;;;;;;9.23;5.30;;;10.00;90.20;;;9.92;83.36;98960.09;5034586;28;21030;-69
2021/05/30 04:01:20;;;;;;;6.40;5.13;;;10.10;90.30;;;9.94;83.12;98960.88;5041605;28;20657;-69
2021/05/30 04:03:48;;;;;;;6.63;5.57;;;10.10;90.20;;;10.00;83.76;98968.38;5036774;28;20673;-69
2021/05/30 04:06:17;;;;;;;5.93;5.30;;;10.10;90.30;;;10.06;83.93;98956.78;5051895;28;20703;-69
2021/05/30 04:08:47;;;;;;;6.43;5.30;;;10.10;90.30;;;10.09;84.14;98962.66;5036412;28;20751;-69
2021/05/30 04:11:16;;;;;;;7.93;5.03;;;10.20;90.40;;;10.13;83.91;98959.00;5037702;28;20660;-70
2021/05/30 04:13:44;;;;;;;7.73;5.70;;;10.20;90.30;;;10.18;83.58;98958.72;5036924;28;20645;-69
2021/05/30 04:16:12;;;;;;;6.23;4.77;;;10.30;90.40;;;10.21;83.38;98961.16;5041014;28;20628;-69
2021/05/30 04:18:40;;;;;;;6.10;5.43;;;10.30;90.20;;;10.21;83.52;98958.56;5039375;28;20695;-69
2021/05/30 04:21:09;;;;;;;8.00;5.90;;;10.30;90.30;;;10.23;83.44;98954.97;5033099;28;20794;-69
2021/05/30 04:23:37;;;;;;;8.00;5.43;;;10.40;90.30;;;10.29;83.44;98959.03;5032112;28;20638;-69
2021/05/30 04:26:06;;;;;;;6.87;4.73;;;10.40;90.20;;;10.31;83.26;98968.41;5036337;28;20871;-69
2021/05/30 04:28:34;;;;;;;6.37;5.40;;;10.50;90.00;;;10.30;83.46;98960.69;5041423;28;20671;-69
2021/05/30 04:31:02;;;;;;;5.43;4.93;;;10.40;90.00;;;10.36;83.14;98964.66;5036287;28;20688;-69
2021/05/30 04:33:31;;;;;;;7.50;5.43;;;10.50;90.20;;;10.43;83.81;98972.97;5035299;28;20641;-69
2021/05/30 04:35:59;;;;;;;5.70;5.07;;;10.50;90.30;;;10.50;83.47;98966.53;5044232;28;20683;-69
2021/05/30 04:38:27;;;;;;;7.00;6.30;;;10.60;90.30;;;10.55;83.31;98962.72;5045352;28;20626;-69
2021/05/30 04:41:00;;;;;;;6.50;5.40;;;10.60;90.20;;;10.64;83.10;98966.63;5034354;28;20648;-69
2021/05/30 04:43:30;;;;;;;5.80;5.20;;;10.70;90.30;;;10.70;82.89;98961.88;5041262;28;21026;-69
2021/05/30 04:45:58;;;;;;;7.83;6.40;;;10.80;90.10;;;10.76;83.30;98964.16;5043861;28;20936;-69
2021/05/30 04:48:26;;;;;;;6.67;5.97;;;10.80;90.50;;;10.84;82.37;98969.81;5037389;28;20633;-70
2021/05/30 04:51:05;;;;;;;7.20;5.43;;;10.90;90.40;;;10.87;83.79;98960.03;5037443;28;20629;-69
2021/05/30 04:53:36;;;;;;;6.83;6.07;;;11.00;90.30;;;10.97;83.59;98961.19;5035688;28;20632;-69
2021/05/30 04:56:05;;;;;;;8.73;5.90;;;11.00;90.20;;;11.08;83.92;98964.06;5041842;28;20632;-69
2021/05/30 04:58:35;;;;;;;11.70;8.93;;;11.10;90.50;;;11.19;82.64;98960.84;5036326;28;20640;-69
2021/05/30 05:01:06;;;;;;;16.20;10.87;;;11.20;90.20;;;11.23;82.63;98967.56;5039495;28;20653;-69
2021/05/30 05:03:34;;;;;;;8.70;7.67;;;11.30;90.00;;;11.27;81.55;98964.69;5044882;28;20668;-69
2021/05/30 05:06:02;;;;;;;7.27;6.33;;;11.20;89.30;;;11.30;82.54;98959.28;5042312;28;20669;-69
2021/05/30 05:08:30;;;;;;;8.43;6.63;;;11.30;90.30;;;11.42;83.14;98959.44;5038170;28;20633;-69
2021/05/30 05:10:59;;;;;;;6.90;5.80;;;11.40;90.10;;;11.50;83.18;98959.88;5042323;28;20645;-69
2021/05/30 05:13:27;;;;;;;6.47;5.73;;;11.50;90.20;;;11.60;82.90;98958.41;5046419;28;20632;-69
2021/05/30 05:15:57;;;;;;;8.40;6.80;;;11.60;90.40;;;11.69;83.32;98960.47;5036014;28;20681;-69
2021/05/30 05:18:29;;;;;;;6.80;6.10;;;11.70;90.20;;;11.77;81.82;98961.72;5040273;28;21060;-70
2021/05/30 05:20:58;;;;;;;7.50;6.40;;;11.80;89.70;;;11.90;82.11;98960.03;5039037;28;20653;-70
2021/05/30 05:23:27;;;;;;;6.93;6.10;;;11.80;89.40;;;12.01;82.75;98962.00;5042370;28;21191;-70
2021/05/30 05:25:57;;;;;;;7.20;6.00;;;12.00;90.40;;;12.15;81.68;98960.25;5038065;28;20630;-70
2021/05/30 05:28:25;;;;;;;7.47;5.83;;;12.10;90.10;;;12.28;82.51;98963.78;5041839;28;20642;-70
2021/05/30 05:30:54;;;;;;;6.73;5.90;;;12.20;89.40;;;12.39;80.82;98967.44;5036496;28;20641;-70
2021/05/30 05:33:23;;;;;;;9.07;6.53;;;12.30;88.40;;;12.56;81.39;98959.38;5042428;28;20680;-70
2021/05/30 05:35:52;;;;;;;6.30;5.70;;;12.50;88.70;;;12.75;81.15;98965.16;5042326;28;20630;-70
2021/05/30 05:38:21;;;;;;;6.37;5.67;;;12.70;87.80;;;12.98;80.51;98962.78;5036477;28;20682;-70
2021/05/30 05:40:49;;;;;;;10.50;7.10;;;12.90;88.20;;;13.38;79.89;98972.34;5042128;28;20649;-70
2021/05/30 05:43:17;;;;;;;7.50;6.80;;;13.20;87.90;;;14.05;78.14;98966.00;5037557;28;20638;-70
2021/05/30 05:45:47;;;;;;;9.00;6.73;;;13.70;87.20;;;14.77;75.55;98967.81;5046678;28;21246;-70
2021/05/30 05:48:16;;;;;;;7.10;6.30;;;14.40;83.40;;;15.43;75.08;98969.06;5035012;28;20632;-70
2021/05/30 05:50:46;;;;;;;7.77;6.20;;;15.00;81.60;;;16.05;71.50;98973.91;5036817;28;20625;-69
2021/05/30 05:53:15;;;;;;;8.23;6.30;;;15.70;77.30;;;16.35;68.57;98985.59;5038353;28;21840;-69
2021/05/30 05:55:43;;;;;;;7.10;6.20;;;16.00;71.90;;;16.82;66.63;98980.09;5036182;28;21160;-69
2021/05/30 05:58:12;;;;;;;7.10;6.40;;;16.40;71.30;;;17.06;64.97;98987.75;5042687;28;20640;-69
2021/05/30 06:00:40;;;;;;;8.80;6.23;;;16.80;67.60;;;17.43;64.64;98983.00;5038190;28;20659;-69
2021/05/30 06:03:08;;;;;;;8.00;6.33;;;17.20;67.80;;;17.91;63.88;98993.00;5046322;28;20633;-70
2021/05/30 06:05:36;;;;;;;6.83;5.80;;;17.70;66.00;;;18.18;62.26;98987.09;5043037;28;20729;-70
2021/05/30 06:08:05;;;;;;;7.10;6.40;;;17.90;63.10;;;18.25;61.91;98988.25;5041688;28;20647;-70
2021/05/30 06:10:34;;;;;;;6.20;5.40;;;18.10;61.80;;;18.54;61.98;98981.31;5042627;28;20632;-70
2021/05/30 06:13:10;;;;;;;6.10;5.50;;;18.40;61.70;;;18.75;60.57;98982.09;5042256;28;20635;-70
2021/05/30 06:15:39;;;;;;;6.47;5.50;;;18.60;59.90;;;18.77;60.56;98978.34;5037976;28;20633;-70
2021/05/30 06:18:10;;;;;;;7.40;6.10;;;18.70;59.60;;;19.00;60.26;98988.59;5037988;28;21270;-70
2021/05/30 06:20:41;;;;;;;7.30;5.90;;;18.90;59.40;;;18.99;60.18;98986.09;5034146;28;20641;-70
2021/05/30 06:23:11;;;;;;;7.80;5.50;;;18.90;59.10;;;19.42;58.12;98985.66;5053038;28;20624;-70
2021/05/30 06:25:42;;;;;;;6.33;5.67;;;19.30;57.80;;;19.46;59.75;98981.75;5040218;28;21006;-70
2021/05/30 06:28:11;;;;;;;6.37;5.70;;;19.40;57.90;;;19.76;57.16;98994.06;5040815;28;20666;-70
2021/05/30 06:30:40;;;;;;;8.00;6.03;;;19.60;56.90;;;19.93;59.29;98984.44;5039606;28;20644;-70
2021/05/30 06:33:10;;;;;;;5.63;5.10;;;19.90;57.50;;;20.27;57.55;98984.84;5038293;28;20647;-70
2021/05/30 06:35:40;;;;;;;5.90;5.10;;;20.10;56.10;;;20.50;56.46;98987.81;5041412;28;21222;-70
2021/05/30 06:38:11;;;;;;;5.70;4.97;;;20.30;55.10;;;20.74;56.20;98990.00;5035709;28;20622;-68
2021/05/30 06:40:40;;;;;;;5.60;5.03;;;20.50;54.40;;;20.75;55.31;98991.66;5037993;28;20640;-68
2021/05/30 06:43:10;;;;;;;5.67;4.83;;;20.60;53.80;;;20.79;55.14;98982.44;5038299;28;20653;-67
2021/05/30 06:45:38;;;;;;;5.87;5.30;;;20.70;53.00;;;20.96;55.06;98991.31;5035716;28;20625;-68
2021/05/30 06:48:08;;;;;;;5.67;5.17;;;20.70;53.20;;;21.24;54.52;98997.44;5033651;28;20671;-68
2021/05/30 06:50:39;;;;;;;5.80;4.60;;;21.00;53.20;;;21.14;53.79;98994.00;5032419;28;20636;-68
2021/05/30 06:53:08;;;;;;;5.50;5.00;;;21.00;52.60;;;20.82;53.11;98985.63;5038085;28;20641;-70
2021/05/30 06:55:36;;;;;;;5.47;4.97;;;20.80;51.40;;;21.00;56.80;98999.78;5040037;28;20648;-70
2021/05/30 06:58:05;;;;;;;5.60;5.10;;;20.80;53.40;;;21.00;54.80;98998.00;5035061;28;20643;-70
2021/05/30 07:00:33;;;;;;;5.00;4.43;;;20.90;51.90;;;20.99;56.02;99000.81;5040869;28;20641;-70
2021/05/30 07:03:01;;;;;;;7.40;5.67;;;20.80;52.50;;;20.61;54.99;99005.38;5039914;28;20689;-70
2021/05/30 07:05:29;;;;;;;6.30;5.70;;;20.40;51.90;;;20.47;55.44;98996.06;5037677;28;20643;-69
2021/05/30 07:07:59;;;;;;;5.87;5.27;;;20.30;52.00;;;20.13;55.12;98999.34;5035871;28;20676;-69
2021/05/30 07:10:28;;;;;;;6.47;5.30;;;19.90;52.90;;;20.12;55.27;99002.16;5036963;28;20728;-69
2021/05/30 07:12:57;;;;;;;7.30;5.47;;;19.80;53.50;;;20.21;56.45;99001.31;5038651;28;20637;-69
2021/05/30 07:15:25;;;;;;;6.43;5.43;;;19.90;53.50;;;20.21;55.76;99006.59;5037115;28;20695;-69
2021/05/30 07:17:53;;;;;;;8.40;6.57;;;19.90;54.00;;;20.12;55.21;99004.78;5032761;28;20643;-69
2021/05/30 07:20:22;;;;;;;10.47;6.10;;;19.80;53.50;;;20.07;55.98;99004.34;5033454;28;20947;-69
2021/05/30 07:22:50;;;;;;;7.60;6.00;;;19.70;54.40;;;20.37;55.08;98995.25;5040739;28;21062;-69
2021/05/30 07:25:18;;;;;;;8.27;6.23;;;20.00;54.00;;;20.02;56.04;99004.78;5045281;28;20675;-69
2021/05/30 07:27:46;;;;;;;7.23;6.23;;;19.80;54.00;;;20.18;56.81;99001.59;5037686;28;20696;-69
2021/05/30 07:30:17;;;;;;;6.40;5.67;;;19.90;53.90;;;20.51;56.67;98999.28;5040186;28;20640;-69
2021/05/30 07:32:45;;;;;;;6.40;5.80;;;20.20;53.80;;;20.70;54.68;98994.75;5035247;28;20628;-69
2021/05/30 07:35:14;;;;;;;7.47;6.40;;;20.30;53.70;;;20.94;56.32;99008.34;5034442;28;20653;-69
2021/05/30 07:37:42;;;;;;;6.20;5.60;;;20.50;54.40;;;21.14;56.66;99009.91;5032993;28;21187;-69
2021/05/30 07:40:12;;;;;;;6.67;5.83;;;20.70;53.80;;;21.46;54.93;99014.66;5037117;28;21044;-69
2021/05/30 07:42:40;;;;;;;6.30;5.70;;;21.00;53.30;;;21.41;53.89;99014.25;5035741;28;20666;-70
2021/05/30 07:45:11;;;;;;;6.50;5.57;;;21.00;51.80;;;21.61;55.76;99010.50;5034515;28;20641;-67
2021/05/30 07:47:40;;;;;;;6.00;5.40;;;21.20;53.10;;;21.82;54.28;99013.72;5038879;28;20643;-67
2021/05/30 07:50:10;;;;;;;6.47;5.67;;;21.50;53.30;;;21.79;54.38;99009.53;5031626;28;20661;-66
2021/05/30 07:52:40;;;;;;;6.53;5.93;;;21.40;52.10;;;21.54;54.46;99014.72;5039874;28;20635;-67
2021/05/30 07:55:10;;;;;;;7.47;5.70;;;21.20;51.90;;;21.80;54.16;99015.69;5038323;28;20638;-67
2021/05/30 07:57:39;;;;;;;6.47;5.80;;;21.40;52.10;;;21.79;55.46;99008.69;5036291;28;21218;-67
2021/05/30 08:00:10;;;;;;;6.00;5.40;;;21.30;52.80;;;21.88;55.04;99010.44;5052195;28;21189;-67
2021/05/30 08:02:44;;;;;;;6.53;5.40;;;21.40;53.10;;;22.16;53.90;98999.56;5033383;28;21141;-67
2021/05/30 08:05:18;;;;;;;5.47;4.97;;;21.70;52.10;;;22.27;52.78;99002.84;5037950;28;21195;-67
2021/05/30 08:07:47;;;;;;;6.27;5.30;;;21.80;51.00;;;22.56;53.25;99011.34;5040732;28;20622;-67
2021/05/30 08:10:17;;;;;;;5.80;5.20;;;22.10;51.70;;;22.24;51.67;99008.47;5038211;28;20631;-66
2021/05/30 08:12:46;;;;;;;5.07;4.57;;;22.00;49.20;;;21.83;52.13;99002.94;5034675;28;20635;-69
2021/05/30 08:15:16;;;;;;;5.83;5.33;;;21.50;49.40;;;21.95;52.91;99008.81;5043594;28;20678;-68
2021/05/30 08:17:46;;;;;;;6.70;4.90;;;21.60;50.20;;;22.22;53.42;98998.13;5034753;28;21189;-66
2021/05/30 08:20:17;;;;;;;6.40;4.90;;;21.80;50.90;;;22.51;53.30;99004.84;5036024;28;20659;-67
2021/05/30 08:22:46;;;;;;;5.20;4.70;;;22.00;51.20;;;22.60;51.39;99007.38;5038095;28;20656;-68
2021/05/30 08:25:16;;;;;;;5.40;4.90;;;22.20;49.10;;;22.70;52.20;99008.09;5037089;28;20643;-68
2021/05/30 08:27:47;;;;;;;5.67;4.90;;;22.30;49.80;;;22.65;50.34;99005.09;5038458;28;20640;-68
2021/05/30 08:30:18;;;;;;;4.90;4.40;;;22.30;48.30;;;22.65;50.62;99005.09;5044080;28;20984;-68
2021/05/30 08:32:48;;;;;;;6.37;4.80;;;22.30;48.00;;;22.56;53.09;98998.03;5044209;28;20998;-68
2021/05/30 08:35:17;;;;;;;5.63;4.50;;;22.20;49.60;;;22.38;50.24;99001.75;5039508;28;20740;-68
2021/05/30 08:37:45;;;;;;;5.07;4.57;;;22.10;46.70;;;22.06;49.48;99003.31;5042239;28;20618;-68
2021/05/30 08:40:17;;;;;;;5.23;4.33;;;21.80;45.80;;;22.01;50.40;98993.13;5035531;28;20646;-68
2021/05/30 08:42:46;;;;;;;4.33;3.93;;;21.70;46.80;;;21.97;49.70;98980.31;5043015;28;20663;-68
2021/05/30 08:45:18;;;;;;;3.53;3.17;;;21.70;47.00;;;22.08;47.26;98982.72;5041653;28;20638;-68
2021/05/30 08:47:47;;;;;;;4.80;4.23;;;21.70;43.80;;;22.25;49.00;98980.88;5037865;28;20660;-68
2021/05/30 08:50:16;;;;;;;5.20;3.90;;;21.90;45.50;;;22.47;49.65;98980.34;5039151;28;20651;-68
2021/05/30 08:52:44;;;;;;;4.40;4.00;;;22.10;46.10;;;22.65;49.89;98972.34;5038110;28;20667;-68
2021/05/30 08:55:14;;;;;;;5.27;4.37;;;22.30;46.00;;;22.74;49.89;98966.88;5038909;28;20627;-70
2021/05/30 08:57:45;;;;;;;4.83;4.33;;;22.40;47.00;;;22.67;49.90;98976.47;5042395;28;20635;-70
2021/05/30 09:00:22;;;;;;;6.23;4.53;;;22.40;45.90;;;22.91;50.14;98976.63;5041613;28;20636;-69
2021/05/30 09:03:15;;;;;;;7.50;4.73;;;22.50;46.60;;;23.24;52.02;98972.13;5039757;28;20654;-69
2021/05/30 09:05:43;;;;;;;4.13;3.80;;;22.80;48.60;;;23.61;50.11;98975.22;5036141;28;20660;-69
2021/05/30 09:08:30;;;;;;;4.07;3.67;;;23.20;47.20;;;22.97;48.14;98973.34;5036013;28;20632;-69
2021/05/30 09:10:59;;;;;;;4.60;4.20;;;22.80;43.90;;;23.34;47.52;98970.16;5036540;28;20642;-70
2021/05/30 09:13:28;;;;;;;5.30;4.53;;;23.00;43.80;;;23.67;49.90;98977.25;5041658;28;21169;-69
2021/05/30 09:16:09;;;;;;;4.30;3.90;;;23.30;46.50;;;23.79;48.48;98967.94;5044695;28;21153;-70
2021/05/30 09:18:51;;;;;;;5.87;3.60;;;23.40;45.60;;;23.94;46.61;98971.63;5038059;28;20640;-70
2021/05/30 09:21:21;;;;;;;4.27;3.80;;;23.60;44.40;;;23.87;46.37;98960.78;5037343;28;21230;-70
2021/05/30 09:23:49;;;;;;;4.33;3.70;;;23.60;42.90;;;23.44;46.18;98965.53;5037121;28;20642;-66
2021/05/30 09:26:20;;;;;;;4.10;3.60;;;23.40;41.40;;;23.14;45.99;98951.09;5038637;28;20640;-65
2021/05/30 09:29:07;;;;;;;4.60;4.00;;;23.20;41.60;;;22.67;47.76;98955.19;5043288;28;20656;-65
2021/05/30 09:31:54;;;;;;;6.20;4.10;;;22.70;42.20;;;22.66;46.92;98961.53;5038065;28;20639;-65
2021/05/30 09:34:27;;;;;;;5.53;5.03;;;22.60;43.20;;;22.69;47.83;98955.03;5035117;28;21045;-65
2021/05/30 09:36:56;;;;;;;4.47;3.80;;;22.50;43.10;;;22.80;45.77;98956.44;5036886;28;20638;-66
2021/05/30 09:39:35;;;;;;;3.97;3.57;;;22.60;41.70;;;22.61;45.35;98949.69;5037584;28;20634;-65
2021/05/30 09:42:25;;;;;;;2.97;2.67;;;22.40;40.90;;;22.77;43.94;98950.59;5038370;28;21030;-64
2021/05/30 09:44:57;;;;;;;5.10;3.80;;;22.50;38.80;;;22.59;45.72;98944.53;5039728;28;21045;-64
2021/05/30 09:47:31;;;;;;;5.00;3.63;;;22.30;40.90;;;22.61;46.67;98950.50;5026478;28;20693;-63
2021/05/30 09:50:05;;;;;;;4.77;3.80;;;22.40;41.80;;;22.55;46.62;98948.50;5043853;28;21392;-63
2021/05/30 09:52:37;;;;;;;3.93;3.53;;;22.30;41.70;;;22.47;45.75;98945.78;5037058;28;20650;-64
2021/05/30 09:55:17;;;;;;;3.43;3.13;;;22.20;41.20;;;22.67;46.16;98959.69;5041826;28;21191;-63
2021/05/30 09:58:08;;;;;;;4.53;2.90;;;22.30;41.40;;;22.58;45.42;98945.53;5042159;28;21201;-64
2021/05/30 10:00:36;;;;;;;3.80;3.50;;;22.20;41.00;;;22.16;44.65;98950.88;5037287;28;20637;-66
2021/05/30 10:03:05;;;;;;;5.43;3.90;;;21.90;40.20;;;22.06;45.10;98955.47;5036836;28;20649;-65
2021/05/30 10:05:37;;;;;;;4.00;3.47;;;21.80;40.50;;;22.13;45.81;98954.69;5036081;28;20645;-64
2021/05/30 10:08:06;;;;;;;7.20;3.67;;;21.80;40.70;;;22.08;45.86;98950.81;5041346;28;20728;-64
2021/05/30 10:10:34;;;;;;;6.40;3.83;;;21.80;40.90;;;22.23;45.95;98950.94;5043090;28;20644;-63
2021/05/30 10:13:04;;;;;;;4.57;3.67;;;21.90;41.20;;;22.28;45.80;98947.81;5038380;28;21360;-63
2021/05/30 10:15:32;;;;;;;4.80;3.50;;;21.80;40.70;;;22.29;44.35;98958.28;5034087;28;21000;-63
2021/05/30 10:18:10;;;;;;;4.50;3.10;;;21.90;40.10;;;22.17;44.34;98950.72;5051054;28;20640;-63
2021/05/30 10:20:40;;;;;;;3.90;3.50;;;21.80;39.10;;;22.23;45.99;98949.28;5040378;28;20729;-64
2021/05/30 10:23:11;;;;;;;3.93;3.53;;;21.80;40.10;;;22.22;45.35;98937.81;5058830;28;20647;-64
2021/05/30 10:25:39;;;;;;;6.03;3.47;;;21.90;40.20;;;22.19;45.44;98932.81;5039865;28;20629;-63
2021/05/30 10:28:14;;;;;;;3.53;3.10;;;21.80;40.20;;;22.54;47.94;98938.84;5044123;28;20776;-63
2021/05/30 10:30:44;;;;;;;3.93;3.53;;;22.10;43.50;;;22.59;46.06;98941.88;5044367;28;20230;-63
2021/05/30 10:33:19;;;;;;;3.90;3.60;;;22.20;40.70;;;22.56;45.68;98947.50;5039077;28;20631;-63
2021/05/30 10:35:50;;;;;;;4.57;3.03;;;22.20;39.80;;;22.68;44.15;98946.25;5038503;28;20968;-68